Time;durP1;ratioP1;P1;durP2;ratioP2;P2;SDS_P1;SDS_P2;PMS_P1;PMS_P2;Temp;Humidity;BMP_temperature;BMP_pressure;BME280_temperature;BME280_humidity;BME280_pressure;Samples;Min_cycle;Max_cycle;Signal;HPM_P1;HPM_P2
2021/01/09 00:02:05;;;;;;;14.73;9.02;;;2.80;94.60;;;;;;5088920;28;20051;-72
2021/01/09 00:04:31;;;;;;;14.77;10.02;;;2.70;94.70;;;;;;5089350;28;20035;-72
2021/01/09 00:06:56;;;;;;;11.70;9.50;;;2.70;94.80;;;;;;5088606;28;20017;-72
2021/01/09 00:09:22;;;;;;;16.35;10.27;;;2.70;95.00;;;;;;5088917;28;20040;-72
2021/01/09 00:11:47;;;;;;;12.48;9.55;;;2.60;95.00;;;;;;5087129;28;20024;-72
2021/01/09 00:14:15;;;;;;;14.75;9.63;;;2.60;95.10;;;;;;5088483;28;20048;-71
2021/01/09 00:16:48;;;;;;;12.63;9.55;;;2.60;95.10;;;;;;5087888;28;20090;-72
2021/01/09 00:19:14;;;;;;;14.35;10.15;;;2.60;95.10;;;;;;5086748;28;20024;-72
2021/01/09 00:21:39;;;;;;;14.98;10.73;;;2.60;95.10;;;;;;5087698;28;20027;-72
2021/01/09 00:24:10;;;;;;;13.73;10.43;;;2.60;95.10;;;;;;5087098;28;20020;-72
2021/01/09 00:26:36;;;;;;;42.03;12.80;;;2.60;95.10;;;;;;5077215;28;20078;-72
2021/01/09 00:29:05;;;;;;;17.67;12.10;;;2.70;95.10;;;;;;5073771;28;20074;-72
2021/01/09 00:31:31;;;;;;;13.73;10.90;;;2.70;95.00;;;;;;5075504;28;20045;-72
2021/01/09 00:33:57;;;;;;;17.17;10.80;;;2.70;95.00;;;;;;5074568;28;20032;-73
2021/01/09 00:36:22;;;;;;;18.27;11.75;;;2.60;94.90;;;;;;5074909;28;20035;-72
2021/01/09 00:38:48;;;;;;;17.83;11.65;;;2.60;94.90;;;;;;5073592;28;20120;-73
2021/01/09 00:41:14;;;;;;;15.77;10.98;;;2.60;94.90;;;;;;5074094;28;20028;-73
2021/01/09 00:43:39;;;;;;;13.07;9.98;;;2.50;94.80;;;;;;5074883;28;20418;-73
2021/01/09 00:46:05;;;;;;;13.02;10.40;;;2.50;94.90;;;;;;5074597;28;20029;-73
2021/01/09 00:48:30;;;;;;;14.07;10.27;;;2.50;95.00;;;;;;5072942;28;20074;-73
2021/01/09 00:50:56;;;;;;;14.95;9.52;;;2.40;95.00;;;;;;5073504;28;20028;-73
2021/01/09 00:53:21;;;;;;;14.30;9.40;;;2.40;95.20;;;;;;5073226;28;20060;-73
2021/01/09 00:55:47;;;;;;;13.57;10.02;;;2.40;95.20;;;;;;5074109;28;20033;-73
2021/01/09 00:58:12;;;;;;;13.13;9.48;;;2.40;95.30;;;;;;5074681;28;20495;-73
2021/01/09 01:00:38;;;;;;;13.82;9.77;;;2.40;95.30;;;;;;5074820;28;20033;-73
2021/01/09 01:03:04;;;;;;;14.98;10.18;;;2.40;95.30;;;;;;5072394;28;20012;-72
2021/01/09 01:05:30;;;;;;;13.32;8.80;;;2.40;95.40;;;;;;5073443;28;20019;-72
2021/01/09 01:07:55;;;;;;;13.60;10.18;;;2.40;95.40;;;;;;5073997;28;20028;-72
2021/01/09 01:10:21;;;;;;;13.40;9.68;;;2.40;95.50;;;;;;5074083;28;20025;-72
2021/01/09 01:12:46;;;;;;;17.40;12.05;;;2.40;95.50;;;;;;5073386;28;20024;-72
2021/01/09 01:15:12;;;;;;;11.93;9.07;;;2.40;95.40;;;;;;5073227;28;20134;-72
2021/01/09 01:17:38;;;;;;;15.35;10.18;;;2.40;95.40;;;;;;5074684;28;20067;-72
2021/01/09 01:20:04;;;;;;;16.70;11.32;;;2.40;95.40;;;;;;5073896;28;20063;-72
2021/01/09 01:22:30;;;;;;;17.75;11.18;;;2.40;95.40;;;;;;5073674;28;20048;-73
2021/01/09 01:24:55;;;;;;;20.33;12.20;;;2.40;95.60;;;;;;5074166;28;20433;-73
2021/01/09 01:27:21;;;;;;;18.58;12.68;;;2.30;95.40;;;;;;5072586;28;20024;-73
2021/01/09 01:29:46;;;;;;;20.60;13.13;;;2.40;95.40;;;;;;5071948;28;20056;-73
2021/01/09 01:32:12;;;;;;;20.90;13.73;;;2.30;95.40;;;;;;5074004;28;20053;-74
2021/01/09 01:34:37;;;;;;;21.80;13.32;;;2.30;95.40;;;;;;5072653;28;20044;-73
2021/01/09 01:37:03;;;;;;;21.02;12.77;;;2.20;95.40;;;;;;5072465;28;20100;-73
2021/01/09 01:39:28;;;;;;;23.23;13.25;;;2.20;95.40;;;;;;5073791;28;20036;-72
2021/01/09 01:41:55;;;;;;;18.70;11.73;;;2.10;95.40;;;;;;5072504;28;20052;-72
2021/01/09 01:44:21;;;;;;;17.75;11.85;;;2.00;95.50;;;;;;5073005;28;20017;-71
2021/01/09 01:46:47;;;;;;;16.25;11.35;;;2.00;95.60;;;;;;5073730;28;20381;-73
2021/01/09 01:49:13;;;;;;;19.75;12.75;;;2.00;95.60;;;;;;5073576;28;20545;-73
2021/01/09 01:51:40;;;;;;;17.40;10.57;;;2.10;95.60;;;;;;5073024;28;20108;-73
2021/01/09 01:54:07;;;;;;;18.88;12.18;;;2.10;95.50;;;;;;5071774;28;20033;-73
2021/01/09 01:56:32;;;;;;;17.83;11.38;;;2.10;95.50;;;;;;5073830;28;20021;-73
2021/01/09 01:58:58;;;;;;;17.10;11.38;;;2.10;95.50;;;;;;5072806;28;20522;-73
2021/01/09 02:01:25;;;;;;;16.05;10.45;;;2.10;95.50;;;;;;5072131;28;20020;-73
2021/01/09 02:03:51;;;;;;;12.70;9.55;;;2.20;95.50;;;;;;5073608;28;20534;-74
2021/01/09 02:06:21;;;;;;;13.98;9.68;;;2.20;95.40;;;;;;5072825;28;20031;-73
2021/01/09 02:09:00;;;;;;;15.25;10.32;;;2.20;95.40;;;;;;5072142;28;20016;-73
2021/01/09 02:11:46;;;;;;;14.70;10.30;;;2.20;95.40;;;;;;5072504;28;20107;-73
2021/01/09 02:14:21;;;;;;;13.90;9.18;;;2.20;95.30;;;;;;5071415;28;20049;-73
2021/01/09 02:16:48;;;;;;;10.93;8.43;;;2.20;95.30;;;;;;5073239;28;20461;-72
2021/01/09 02:19:15;;;;;;;11.27;7.72;;;2.20;95.40;;;;;;5070865;28;20017;-72
2021/01/09 02:21:41;;;;;;;12.38;9.13;;;2.10;95.40;;;;;;5071678;28;20354;-72
2021/01/09 02:24:11;;;;;;;65.22;10.85;;;2.10;95.50;;;;;;5072591;28;20357;-72
2021/01/09 02:26:37;;;;;;;12.23;9.98;;;2.00;95.60;;;;;;5072369;28;20107;-72
2021/01/09 02:29:03;;;;;;;9.07;7.55;;;2.00;95.70;;;;;;5072804;28;20068;-73
2021/01/09 02:31:32;;;;;;;11.32;8.52;;;2.00;95.70;;;;;;5073201;28;20048;-72
2021/01/09 02:33:57;;;;;;;10.13;7.75;;;2.00;95.70;;;;;;5072069;28;20032;-72
2021/01/09 02:36:23;;;;;;;9.77;7.18;;;1.90;95.70;;;;;;5071385;28;20036;-72
2021/01/09 02:38:49;;;;;;;12.23;7.45;;;1.90;96.00;;;;;;5072898;28;20040;-72
2021/01/09 02:41:15;;;;;;;10.38;8.45;;;1.90;95.80;;;;;;5071935;28;20029;-73
2021/01/09 02:43:40;;;;;;;8.82;7.20;;;1.80;95.80;;;;;;5071404;28;20147;-73
2021/01/09 02:46:06;;;;;;;9.55;7.65;;;1.80;95.80;;;;;;5071096;28;20071;-73
2021/01/09 02:48:32;;;;;;;11.52;8.65;;;1.80;95.90;;;;;;5070773;28;20036;-73
2021/01/09 02:50:57;;;;;;;11.50;9.18;;;1.80;95.90;;;;;;5071272;28;20120;-72
2021/01/09 02:53:22;;;;;;;11.27;8.95;;;1.80;96.00;;;;;;5072540;28;20036;-72
2021/01/09 02:55:48;;;;;;;12.93;9.40;;;1.70;96.00;;;;;;5071991;28;20035;-72
2021/01/09 02:58:14;;;;;;;11.43;8.55;;;1.80;96.00;;;;;;5072563;28;20388;-71
2021/01/09 03:00:39;;;;;;;13.05;9.32;;;1.80;96.10;;;;;;5072228;28;20017;-72
2021/01/09 03:03:05;;;;;;;15.55;10.70;;;1.80;96.00;;;;;;5071140;28;20444;-72
2021/01/09 03:05:30;;;;;;;15.25;9.98;;;1.80;96.00;;;;;;5072606;28;20021;-71
2021/01/09 03:07:56;;;;;;;18.58;11.40;;;1.70;96.00;;;;;;5070303;28;20028;-72
2021/01/09 03:10:21;;;;;;;14.55;10.10;;;1.70;96.10;;;;;;5071002;28;20373;-71
2021/01/09 03:12:47;;;;;;;16.10;10.48;;;1.70;96.10;;;;;;5071405;28;20017;-71
2021/01/09 03:15:12;;;;;;;16.55;9.48;;;1.60;96.10;;;;;;5071226;28;20048;-72
2021/01/09 03:17:38;;;;;;;17.17;10.30;;;1.60;96.20;;;;;;5071353;28;20032;-73
2021/01/09 03:20:04;;;;;;;15.88;9.98;;;1.60;96.20;;;;;;5070556;28;20048;-72
2021/01/09 03:22:30;;;;;;;14.90;9.50;;;1.60;96.20;;;;;;5070381;28;20477;-71
2021/01/09 03:24:55;;;;;;;14.30;9.68;;;1.60;96.10;;;;;;5072295;28;20035;-72
2021/01/09 03:27:21;;;;;;;15.35;11.10;;;1.60;96.10;;;;;;5070787;28;20025;-72
2021/01/09 03:29:46;;;;;;;12.10;8.73;;;1.70;96.20;;;;;;5070469;28;20028;-71
2021/01/09 03:32:12;;;;;;;11.80;8.43;;;1.70;96.10;;;;;;5072201;28;20024;-73
2021/01/09 03:34:37;;;;;;;12.95;9.02;;;1.70;96.00;;;;;;5071043;28;20029;-72
2021/01/09 03:37:03;;;;;;;10.88;8.68;;;1.70;96.10;;;;;;5071568;28;20013;-72
2021/01/09 03:39:28;;;;;;;13.20;9.20;;;1.60;96.00;;;;;;5071997;28;20407;-71
2021/01/09 03:41:54;;;;;;;10.80;8.77;;;1.60;96.10;;;;;;5072220;28;20048;-72
2021/01/09 03:44:19;;;;;;;12.13;8.13;;;1.60;96.10;;;;;;5071183;28;20039;-72
2021/01/09 03:46:45;;;;;;;12.23;7.97;;;1.60;96.00;;;;;;5070870;28;20024;-71
2021/01/09 03:49:10;;;;;;;10.13;7.95;;;1.60;96.00;;;;;;5071822;28;20063;-71
2021/01/09 03:51:36;;;;;;;9.73;8.18;;;1.70;95.90;;;;;;5071483;28;20393;-71
2021/01/09 03:54:01;;;;;;;11.68;8.40;;;1.70;95.90;;;;;;5071708;28;20473;-71
2021/01/09 03:56:27;;;;;;;8.50;7.57;;;1.70;95.80;;;;;;5070613;28;20493;-72
2021/01/09 03:58:52;;;;;;;10.13;7.63;;;1.60;95.80;;;;;;5070979;28;20095;-71
2021/01/09 04:01:18;;;;;;;10.40;8.02;;;1.60;95.80;;;;;;5073734;28;20032;-72
2021/01/09 04:03:43;;;;;;;9.10;7.03;;;1.60;95.80;;;;;;5075640;28;20533;-72
2021/01/09 04:06:09;;;;;;;8.88;6.95;;;1.60;95.80;;;;;;5074767;28;20021;-72
2021/01/09 04:08:34;;;;;;;7.22;5.90;;;1.60;95.80;;;;;;5074217;28;20033;-71
2021/01/09 04:11:00;;;;;;;9.45;7.07;;;1.60;95.80;;;;;;5073665;28;20126;-71
2021/01/09 04:13:25;;;;;;;15.10;7.35;;;1.60;95.80;;;;;;5075281;28;20468;-71
2021/01/09 04:15:51;;;;;;;8.95;7.13;;;1.50;95.70;;;;;;5074240;28;20045;-72
2021/01/09 04:18:16;;;;;;;8.27;6.85;;;1.50;95.70;;;;;;5074566;28;20028;-72
2021/01/09 04:20:42;;;;;;;9.85;7.00;;;1.50;95.60;;;;;;5075293;28;20025;-71
2021/01/09 04:23:07;;;;;;;10.20;7.75;;;1.50;95.60;;;;;;5073733;28;20071;-70
2021/01/09 04:25:34;;;;;;;10.38;8.13;;;1.50;95.70;;;;;;5074717;28;20115;-72
2021/01/09 04:28:00;;;;;;;12.30;8.75;;;1.50;95.80;;;;;;5075473;28;20488;-72
2021/01/09 04:30:26;;;;;;;9.48;8.10;;;1.50;95.80;;;;;;5074829;28;20016;-72
2021/01/09 04:32:51;;;;;;;9.48;7.63;;;1.50;95.90;;;;;;5073113;28;20081;-72
2021/01/09 04:35:17;;;;;;;10.23;7.78;;;1.50;95.90;;;;;;5074943;28;20040;-72
2021/01/09 04:37:42;;;;;;;9.93;7.43;;;1.50;95.90;;;;;;5074990;28;20024;-72
2021/01/09 04:40:08;;;;;;;7.93;7.00;;;1.50;95.90;;;;;;5073953;28;20430;-72
2021/01/09 04:42:35;;;;;;;8.70;7.57;;;1.50;95.90;;;;;;5075264;28;20437;-72
2021/01/09 04:45:01;;;;;;;9.45;7.30;;;1.50;95.90;;;;;;5074795;28;20126;-72
2021/01/09 04:47:29;;;;;;;10.32;7.60;;;1.50;95.80;;;;;;5074434;28;20054;-72
2021/01/09 04:49:54;;;;;;;10.38;7.45;;;1.50;96.10;;;;;;5075020;28;20017;-72
2021/01/09 04:52:20;;;;;;;9.35;7.05;;;1.50;95.80;;;;;;5074832;28;20030;-73
2021/01/09 04:54:47;;;;;;;8.23;7.18;;;1.50;95.80;;;;;;5074146;28;20028;-72
2021/01/09 04:57:12;;;;;;;8.38;7.40;;;1.50;95.80;;;;;;5074527;28;20031;-72
2021/01/09 04:59:38;;;;;;;10.27;7.57;;;1.50;95.80;;;;;;5074748;28;20020;-72
2021/01/09 05:02:04;;;;;;;8.27;6.95;;;1.50;95.90;;;;;;5072574;28;20028;-72
2021/01/09 05:04:30;;;;;;;11.55;7.65;;;1.40;95.90;;;;;;5073706;28;20053;-71
2021/01/09 05:06:56;;;;;;;10.20;7.85;;;1.50;95.90;;;;;;5074571;28;20437;-71
2021/01/09 05:09:21;;;;;;;8.85;7.30;;;1.40;95.90;;;;;;5072275;28;20028;-71
2021/01/09 05:11:47;;;;;;;7.97;6.75;;;1.40;95.90;;;;;;5074488;28;20031;-72
2021/01/09 05:14:12;;;;;;;8.57;6.47;;;1.50;95.80;;;;;;5073250;28;20135;-71
2021/01/09 05:16:39;;;;;;;7.95;6.38;;;1.40;95.70;;;;;;5074627;28;20036;-72
2021/01/09 05:19:06;;;;;;;8.38;6.65;;;1.40;95.70;;;;;;5074227;28;20032;-72
2021/01/09 05:21:35;;;;;;;8.77;6.68;;;1.40;95.60;;;;;;5073822;28;20044;-71
2021/01/09 05:24:04;;;;;;;8.82;6.03;;;1.30;95.70;;;;;;5072848;28;20017;-71
2021/01/09 05:26:30;;;;;;;8.13;6.30;;;1.40;95.70;;;;;;5074292;28;20392;-71
2021/01/09 05:29:01;;;;;;;7.07;6.20;;;1.30;95.60;;;;;;5073379;28;20025;-72
2021/01/09 05:31:28;;;;;;;7.20;6.30;;;1.30;95.60;;;;;;5073966;28;20541;-72
2021/01/09 05:33:54;;;;;;;8.85;6.10;;;1.30;95.50;;;;;;5073798;28;20024;-71
2021/01/09 05:36:21;;;;;;;7.32;6.35;;;1.20;95.50;;;;;;5073349;28;20021;-71
2021/01/09 05:38:48;;;;;;;8.40;6.82;;;1.20;95.70;;;;;;5072676;28;20020;-71
2021/01/09 05:41:16;;;;;;;9.50;7.47;;;1.20;95.70;;;;;;5073527;28;20025;-71
2021/01/09 05:43:46;;;;;;;7.57;6.53;;;1.20;95.80;;;;;;5071345;28;20464;-71
2021/01/09 05:46:12;;;;;;;19.00;8.48;;;1.30;95.90;;;;;;5072092;28;20087;-71
2021/01/09 05:48:41;;;;;;;10.15;7.45;;;1.30;96.10;;;;;;5072231;28;20117;-71
2021/01/09 05:51:07;;;;;;;7.45;6.28;;;1.30;96.20;;;;;;5072664;28;20028;-71
2021/01/09 05:53:41;;;;;;;8.70;7.00;;;1.40;96.20;;;;;;5073592;28;20024;-71
2021/01/09 05:56:07;;;;;;;8.73;6.10;;;1.40;96.10;;;;;;5073163;28;20020;-71
2021/01/09 05:58:34;;;;;;;8.43;6.72;;;1.40;96.10;;;;;;5072903;28;20063;-72
2021/01/09 06:01:06;;;;;;;8.68;6.53;;;1.40;96.10;;;;;;5073318;28;20016;-72
2021/01/09 06:03:43;;;;;;;7.53;6.07;;;1.40;96.00;;;;;;5071906;28;20448;-72
2021/01/09 06:06:23;;;;;;;9.00;6.95;;;1.30;96.00;;;;;;5071598;28;20162;-71
2021/01/09 06:08:54;;;;;;;9.43;6.85;;;1.30;96.00;;;;;;5073261;28;20031;-71
2021/01/09 06:11:40;;;;;;;8.05;5.95;;;1.40;96.10;;;;;;5070725;28;20062;-71
2021/01/09 06:14:08;;;;;;;7.30;6.05;;;1.30;96.10;;;;;;5072641;28;20108;-71
2021/01/09 06:16:36;;;;;;;8.73;6.43;;;1.40;96.20;;;;;;5073436;28;20020;-73
2021/01/09 06:19:02;;;;;;;8.45;6.07;;;1.50;96.20;;;;;;5072382;28;20028;-72
2021/01/09 06:21:30;;;;;;;6.97;5.40;;;1.50;96.20;;;;;;5073070;28;20017;-74
2021/01/09 06:23:57;;;;;;;6.28;5.38;;;1.50;96.20;;;;;;5070842;28;20071;-72
2021/01/09 06:26:24;;;;;;;6.85;5.40;;;1.60;96.20;;;;;;5072310;28;20025;-73
2021/01/09 06:29:03;;;;;;;7.45;6.32;;;1.60;96.30;;;;;;5073051;28;20028;-72
2021/01/09 06:31:30;;;;;;;8.10;5.78;;;1.70;96.40;;;;;;5072241;28;20020;-73
2021/01/09 06:33:59;;;;;;;6.20;5.57;;;1.80;96.40;;;;;;5072426;28;20043;-72
2021/01/09 06:36:25;;;;;;;8.82;6.10;;;1.80;96.40;;;;;;5072946;28;20032;-73
2021/01/09 06:38:56;;;;;;;8.57;5.57;;;1.90;96.30;;;;;;5070636;28;20060;-73
2021/01/09 06:41:24;;;;;;;10.02;5.85;;;2.00;96.20;;;;;;5072686;28;20074;-73
2021/01/09 06:43:52;;;;;;;8.95;5.60;;;2.10;96.10;;;;;;5071236;28;20025;-72
2021/01/09 06:46:30;;;;;;;8.20;6.03;;;2.10;96.00;;;;;;5071403;28;20435;-73
2021/01/09 06:48:56;;;;;;;9.70;6.00;;;2.10;96.00;;;;;;5072563;28;20367;-73
2021/01/09 06:51:37;;;;;;;8.00;6.13;;;2.00;95.90;;;;;;5071195;28;20118;-72
2021/01/09 06:54:15;;;;;;;10.20;7.25;;;2.00;95.90;;;;;;5071948;28;20037;-74
2021/01/09 06:56:43;;;;;;;10.27;6.35;;;2.00;95.90;;;;;;5072638;28;20028;-75
2021/01/09 06:59:09;;;;;;;8.52;6.85;;;2.00;96.00;;;;;;5072134;28;20013;-73
2021/01/09 07:01:38;;;;;;;9.23;6.05;;;1.90;96.00;;;;;;5071501;28;20059;-73
2021/01/09 07:04:07;;;;;;;10.85;6.32;;;1.90;96.00;;;;;;5072215;28;20021;-72
2021/01/09 07:06:58;;;;;;;11.25;6.00;;;1.90;96.10;;;;;;5072625;28;20017;-73
2021/01/09 07:09:25;;;;;;;11.35;6.93;;;1.90;96.10;;;;;;5072131;28;20027;-74
2021/01/09 07:11:53;;;;;;;11.45;7.25;;;1.90;96.10;;;;;;5072543;28;20472;-73
2021/01/09 07:14:18;;;;;;;11.38;7.35;;;1.90;96.10;;;;;;5070849;28;20048;-73
2021/01/09 07:16:47;;;;;;;13.30;6.55;;;1.90;96.10;;;;;;5071321;28;20102;-73
2021/01/09 07:19:16;;;;;;;12.70;5.53;;;2.00;96.10;;;;;;5072227;28;20029;-73
2021/01/09 07:21:45;;;;;;;11.73;6.28;;;2.10;96.10;;;;;;5070096;28;20024;-73
2021/01/09 07:24:15;;;;;;;10.73;6.07;;;2.10;96.10;;;;;;5070660;28;20564;-72
2021/01/09 07:26:42;;;;;;;13.27;6.88;;;2.20;96.10;;;;;;5072232;28;20024;-73
2021/01/09 07:29:08;;;;;;;11.30;6.50;;;2.30;95.90;;;;;;5071164;28;20033;-73
2021/01/09 07:31:39;;;;;;;8.05;5.97;;;2.40;95.90;;;;;;5072539;28;20036;-73
2021/01/09 07:34:06;;;;;;;12.30;6.47;;;2.40;95.80;;;;;;5070668;28;20131;-73
2021/01/09 07:36:34;;;;;;;10.07;6.15;;;2.40;95.80;;;;;;5074239;28;20630;-73
2021/01/09 07:39:03;;;;;;;8.82;6.28;;;2.50;95.80;;;;;;5076309;28;20035;-73
2021/01/09 07:41:36;;;;;;;11.00;6.28;;;2.50;95.80;;;;;;5075958;28;20043;-74
2021/01/09 07:44:16;;;;;;;11.35;5.65;;;2.60;95.70;;;;;;5073974;28;20082;-74
2021/01/09 07:46:54;;;;;;;10.82;6.05;;;2.60;95.60;;;;;;5074932;28;20032;-73
2021/01/09 07:49:30;;;;;;;8.95;6.50;;;2.60;95.50;;;;;;5075300;28;20105;-72
2021/01/09 07:52:01;;;;;;;9.05;5.75;;;2.60;95.50;;;;;;5075786;28;20485;-72
2021/01/09 07:54:44;;;;;;;10.75;6.05;;;2.60;95.50;;;;;;5076062;28;20032;-73
2021/01/09 07:57:18;;;;;;;;;;;2.60;95.50;;;;;;5073639;28;20047;-73
2021/01/09 08:00:03;;;;;;;13.90;5.93;;;2.70;95.50;;;;;;5074597;28;20240;-74
2021/01/09 08:02:31;;;;;;;8.65;5.95;;;2.70;95.40;;;;;;5075976;28;20028;-73
2021/01/09 08:05:19;;;;;;;9.70;5.97;;;2.80;95.40;;;;;;5074886;28;20024;-73
2021/01/09 08:07:51;;;;;;;8.35;6.28;;;2.90;95.40;;;;;;5075766;28;20024;-73
2021/01/09 08:10:25;;;;;;;12.65;6.72;;;2.90;95.30;;;;;;5074395;28;20868;-73
2021/01/09 08:13:02;;;;;;;13.60;6.63;;;2.90;95.20;;;;;;5074228;28;20028;-73
2021/01/09 08:15:29;;;;;;;10.05;6.47;;;3.00;95.20;;;;;;5073696;28;20048;-73
2021/01/09 08:17:58;;;;;;;11.45;8.07;;;3.10;95.10;;;;;;5074821;28;20027;-73
2021/01/09 08:20:23;;;;;;;11.38;7.25;;;3.10;95.00;;;;;;5073704;28;20029;-73
2021/01/09 08:22:54;;;;;;;12.55;6.95;;;3.00;94.90;;;;;;5075437;28;20431;-73
2021/01/09 08:25:21;;;;;;;12.07;7.93;;;3.00;94.90;;;;;;5074767;28;20025;-73
2021/01/09 08:27:52;;;;;;;8.88;7.10;;;3.10;94.90;;;;;;5075113;28;20119;-73
2021/01/09 08:30:21;;;;;;;9.48;6.45;;;3.10;94.90;;;;;;5074447;28;20112;-73
2021/01/09 08:32:47;;;;;;;14.48;6.78;;;3.10;94.80;;;;;;5074797;28;20357;-73
2021/01/09 08:35:14;;;;;;;12.35;7.25;;;3.20;94.80;;;;;;5075069;28;20086;-73
2021/01/09 08:37:40;;;;;;;14.15;6.63;;;3.20;94.70;;;;;;5073885;28;20025;-70
2021/01/09 08:40:24;;;;;;;14.20;6.18;;;3.20;94.80;;;;;;5074029;28;20081;-70
2021/01/09 08:42:54;;;;;;;8.63;6.10;;;3.30;94.80;;;;;;5074395;28;20024;-72
2021/01/09 08:45:35;;;;;;;11.13;5.30;;;3.40;94.90;;;;;;5073949;28;20048;-72
2021/01/09 08:48:01;;;;;;;12.13;5.68;;;3.50;94.80;;;;;;5074298;28;20013;-72
2021/01/09 08:50:30;;;;;;;7.65;5.40;;;3.60;94.80;;;;;;5074920;28;20056;-71
2021/01/09 08:52:59;;;;;;;276.60;19.40;;;3.70;94.80;;;;;;5074502;28;20024;-72
2021/01/09 08:55:26;;;;;;;6.53;5.00;;;3.80;94.70;;;;;;5073491;28;20032;-73
2021/01/09 08:57:52;;;;;;;6.90;5.65;;;3.90;94.60;;;;;;5071384;28;20029;-73
2021/01/09 09:00:18;;;;;;;13.80;5.22;;;4.00;94.40;;;;;;5071536;28;20192;-73
2021/01/09 09:02:46;;;;;;;10.80;5.72;;;4.10;94.20;;;;;;5072499;28;20024;-73
2021/01/09 09:05:12;;;;;;;26.40;5.68;;;4.20;94.10;;;;;;5073276;28;20123;-73
2021/01/09 09:07:41;;;;;;;85.60;9.50;;;4.30;94.00;;;;;;5073007;28;20024;-74
2021/01/09 09:10:08;;;;;;;110.88;10.38;;;4.20;93.90;;;;;;5073746;28;20028;-73
2021/01/09 09:12:34;;;;;;;18.02;5.63;;;4.20;93.90;;;;;;5073712;28;20013;-73
2021/01/09 09:15:06;;;;;;;9.27;5.07;;;4.20;94.00;;;;;;5072548;28;20136;-73
2021/01/09 09:17:32;;;;;;;104.10;9.55;;;4.20;94.00;;;;;;5074635;28;20016;-72
2021/01/09 09:19:58;;;;;;;17.88;5.93;;;4.20;93.90;;;;;;5072621;28;20036;-72
2021/01/09 09:22:28;;;;;;;7.65;4.47;;;4.20;93.80;;;;;;5072795;28;20032;-73
2021/01/09 09:24:54;;;;;;;7.97;4.65;;;4.20;93.70;;;;;;5074198;28;20016;-73
2021/01/09 09:27:24;;;;;;;7.50;4.60;;;4.20;93.60;;;;;;5072172;28;20112;-73
2021/01/09 09:30:03;;;;;;;7.45;4.57;;;4.20;93.50;;;;;;5074214;28;20074;-74
2021/01/09 09:32:28;;;;;;;6.10;4.38;;;4.20;93.50;;;;;;5074093;28;20104;-74
2021/01/09 09:34:54;;;;;;;6.95;4.43;;;4.20;93.50;;;;;;5072914;28;20060;-73
2021/01/09 09:37:20;;;;;;;8.75;4.65;;;4.20;93.50;;;;;;5073625;28;20103;-74
2021/01/09 09:39:46;;;;;;;10.48;5.18;;;4.20;93.50;;;;;;5073864;28;20034;-72
2021/01/09 09:42:11;;;;;;;10.52;5.25;;;4.10;93.40;;;;;;5072956;28;20099;-74
2021/01/09 09:44:42;;;;;;;12.35;5.50;;;4.10;93.40;;;;;;5073596;28;20031;-74
2021/01/09 09:47:23;;;;;;;8.00;4.47;;;4.00;93.40;;;;;;5072209;28;20025;-73
2021/01/09 09:49:49;;;;;;;10.02;5.13;;;3.90;93.30;;;;;;5072734;28;20434;-73
2021/01/09 09:52:23;;;;;;;5.75;4.05;;;3.90;93.30;;;;;;5073235;28;20103;-73
2021/01/09 09:55:03;;;;;;;12.43;5.60;;;3.90;93.30;;;;;;5071747;28;20382;-73
2021/01/09 09:57:28;;;;;;;11.80;4.53;;;3.80;93.30;;;;;;5071549;28;20021;-74
2021/01/09 10:00:07;;;;;;;10.60;4.47;;;3.90;93.30;;;;;;5072776;28;20024;-72
2021/01/09 10:02:33;;;;;;;8.63;4.88;;;4.00;93.40;;;;;;5072999;28;20020;-72
2021/01/09 10:04:59;;;;;;;8.00;4.95;;;4.00;93.30;;;;;;5072740;28;20389;-73
2021/01/09 10:07:24;;;;;;;7.88;4.63;;;4.20;93.20;;;;;;5072953;28;20032;-75
2021/01/09 10:09:51;;;;;;;9.55;5.10;;;4.30;93.10;;;;;;5071842;28;20024;-74
2021/01/09 10:12:17;;;;;;;78.75;9.10;;;4.50;93.00;;;;;;5073002;28;20020;-73
2021/01/09 10:14:43;;;;;;;6.45;3.83;;;4.70;92.90;;;;;;5073128;28;20059;-73
2021/01/09 10:17:16;;;;;;;7.93;3.70;;;4.80;92.90;;;;;;5070606;28;20040;-74
2021/01/09 10:19:42;;;;;;;15.23;6.80;;;5.00;92.60;;;;;;5071557;28;20082;-73
2021/01/09 10:22:08;;;;;;;7.68;4.47;;;5.00;92.30;;;;;;5072752;28;20021;-75
2021/01/09 10:24:35;;;;;;;8.52;3.85;;;5.00;92.20;;;;;;5071096;28;20048;-71
2021/01/09 10:27:02;;;;;;;6.70;3.97;;;4.90;92.10;;;;;;5072750;28;20020;-72
2021/01/09 10:29:28;;;;;;;11.55;4.20;;;4.80;92.00;;;;;;5072813;28;20028;-73
2021/01/09 10:31:53;;;;;;;11.20;4.10;;;4.60;91.90;;;;;;5072072;28;20031;-70
2021/01/09 10:34:19;;;;;;;87.97;8.88;;;4.50;92.10;;;;;;5071252;28;20488;-71
2021/01/09 10:36:45;;;;;;;9.98;4.50;;;4.40;92.50;;;;;;5073009;28;20024;-72
2021/01/09 10:39:10;;;;;;;10.05;5.28;;;4.20;92.50;;;;;;5071561;28;20400;-74
2021/01/09 10:41:36;;;;;;;7.85;4.68;;;4.10;92.60;;;;;;5071556;28;20050;-73
2021/01/09 10:44:01;;;;;;;9.20;4.80;;;4.00;92.80;;;;;;5072421;28;20085;-73
2021/01/09 10:46:28;;;;;;;8.32;4.35;;;4.10;93.00;;;;;;5071816;28;20066;-73
2021/01/09 10:48:55;;;;;;;10.35;4.32;;;4.00;93.10;;;;;;5071986;28;20035;-74
2021/01/09 10:51:22;;;;;;;9.60;4.60;;;4.10;93.10;;;;;;5072495;28;20085;-73
2021/01/09 10:53:48;;;;;;;7.13;4.60;;;4.20;93.10;;;;;;5073048;28;20051;-73
2021/01/09 10:56:14;;;;;;;10.13;4.57;;;4.30;93.00;;;;;;5072617;28;20107;-73
2021/01/09 10:58:40;;;;;;;11.18;4.55;;;4.30;93.00;;;;;;5072527;28;20128;-72
2021/01/09 11:01:06;;;;;;;10.35;4.40;;;4.40;93.10;;;;;;5071820;28;20021;-73
2021/01/09 11:03:34;;;;;;;8.38;4.25;;;4.50;93.10;;;;;;5071177;28;20108;-72
2021/01/09 11:06:00;;;;;;;8.02;4.13;;;4.60;93.10;;;;;;5070364;28;20024;-74
2021/01/09 11:08:26;;;;;;;11.25;4.22;;;4.70;93.10;;;;;;5071992;28;20021;-73
2021/01/09 11:10:52;;;;;;;6.15;3.60;;;4.90;93.00;;;;;;5071030;28;20085;-73
2021/01/09 11:13:18;;;;;;;14.20;3.55;;;5.00;92.80;;;;;;5071075;28;20025;-73
2021/01/09 11:15:51;;;;;;;7.75;3.60;;;5.20;92.60;;;;;;5071647;28;20058;-73
2021/01/09 11:18:16;;;;;;;10.15;3.30;;;5.30;92.50;;;;;;5070860;28;20027;-73
2021/01/09 11:20:51;;;;;;;5.72;3.38;;;5.30;92.40;;;;;;5070314;28;20025;-73
2021/01/09 11:23:18;;;;;;;9.15;4.40;;;5.30;92.30;;;;;;5071920;28;20078;-73
2021/01/09 11:25:45;;;;;;;6.80;3.45;;;5.30;92.40;;;;;;5070843;28;20044;-74
2021/01/09 11:28:13;;;;;;;8.15;3.50;;;5.30;92.50;;;;;;5070533;28;20021;-73
2021/01/09 11:30:39;;;;;;;8.48;3.42;;;5.30;92.60;;;;;;5070441;28;20536;-74
2021/01/09 11:33:06;;;;;;;8.65;3.28;;;5.30;92.50;;;;;;5071239;28;20051;-74
2021/01/09 11:35:32;;;;;;;9.32;3.38;;;5.30;92.60;;;;;;5070560;28;20094;-74
2021/01/09 11:37:58;;;;;;;12.90;3.70;;;5.30;92.70;;;;;;5066994;28;20021;-74
2021/01/09 11:40:24;;;;;;;5.57;2.95;;;5.40;92.50;;;;;;5071009;28;20112;-73
2021/01/09 11:42:50;;;;;;;7.82;2.75;;;5.50;92.60;;;;;;5071226;28;20514;-74
2021/01/09 11:45:16;;;;;;;9.40;3.78;;;5.60;92.40;;;;;;5071330;28;20025;-74
2021/01/09 11:47:44;;;;;;;19.80;4.45;;;5.80;92.20;;;;;;5071606;28;20048;-73
2021/01/09 11:50:11;;;;;;;11.43;3.75;;;5.90;92.00;;;;;;5069223;28;20027;-74
2021/01/09 11:52:37;;;;;;;11.32;4.15;;;5.90;91.90;;;;;;5070811;28;20016;-73
2021/01/09 11:55:04;;;;;;;8.93;3.67;;;5.90;91.80;;;;;;5070815;28;20425;-75
2021/01/09 11:57:29;;;;;;;7.72;3.25;;;5.90;91.90;;;;;;5070486;28;20024;-74
2021/01/09 11:59:55;;;;;;;8.73;3.38;;;5.80;91.80;;;;;;5072268;28;20143;-74
2021/01/09 12:02:21;;;;;;;6.90;3.38;;;5.70;91.70;;;;;;5069819;28;20139;-74
2021/01/09 12:04:46;;;;;;;8.35;3.40;;;5.60;91.80;;;;;;5071608;28;20107;-74
2021/01/09 12:07:12;;;;;;;6.38;2.92;;;5.60;92.00;;;;;;5071121;28;20029;-74
2021/01/09 12:09:38;;;;;;;9.05;3.65;;;5.70;92.10;;;;;;5070938;28;20031;-74
2021/01/09 12:12:05;;;;;;;6.65;2.90;;;5.60;92.30;;;;;;5071344;28;20031;-73
2021/01/09 12:14:30;;;;;;;8.45;2.90;;;5.60;92.00;;;;;;5070597;28;20384;-74
2021/01/09 12:16:58;;;;;;;6.32;2.80;;;5.70;92.00;;;;;;5069592;28;20020;-74
2021/01/09 12:19:24;;;;;;;13.02;3.85;;;5.70;91.90;;;;;;5071122;28;20032;-73
2021/01/09 12:21:52;;;;;;;6.65;3.05;;;5.70;91.80;;;;;;5070800;28;20555;-73
2021/01/09 12:24:17;;;;;;;13.07;3.33;;;5.80;91.70;;;;;;5072893;28;20023;-74
2021/01/09 12:26:43;;;;;;;7.88;3.00;;;5.80;91.80;;;;;;5074934;28;20478;-78
2021/01/09 12:29:09;;;;;;;6.30;2.88;;;5.90;91.80;;;;;;5074920;28;20024;-75
2021/01/09 12:31:36;;;;;;;4.53;2.53;;;5.90;91.60;;;;;;5074328;28;20029;-74
2021/01/09 12:34:03;;;;;;;8.82;4.13;;;5.90;91.40;;;;;;5074943;28;20035;-74
2021/01/09 12:36:29;;;;;;;7.75;3.03;;;6.00;91.60;;;;;;5073551;28;20458;-73
2021/01/09 12:38:55;;;;;;;11.98;3.13;;;6.00;91.70;;;;;;5073844;28;20052;-76
2021/01/09 12:41:31;;;;;;;9.98;3.00;;;6.10;91.70;;;;;;5073406;28;20052;-71
2021/01/09 12:43:56;;;;;;;9.20;3.83;;;6.20;91.40;;;;;;5074531;28;20027;-74
2021/01/09 12:46:22;;;;;;;8.18;2.83;;;6.20;91.30;;;;;;5073687;28;20096;-70
2021/01/09 12:48:47;;;;;;;5.90;3.08;;;6.20;91.20;;;;;;5074494;28;20484;-72
2021/01/09 12:51:13;;;;;;;11.85;3.17;;;6.20;91.00;;;;;;5074493;28;20027;-74
2021/01/09 12:53:38;;;;;;;7.65;3.13;;;6.10;91.00;;;;;;5072758;28;20492;-70